sensor_id;sensor_type;location;lat;lon;timestamp;P1;durP1;ratioP1;P2;durP2;ratioP2
43014;SDS011;28637;50.554;7.032;2024-02-21T00:03:40;13.52;;;4.93;;
43014;SDS011;28637;50.554;7.032;2024-02-21T00:08:41;11.17;;;4.43;;
43014;SDS011;28637;50.554;7.032;2024-02-21T00:13:41;11.93;;;4.07;;
43014;SDS011;28637;50.554;7.032;2024-02-21T00:18:43;10.93;;;4.30;;
43014;SDS011;28637;50.554;7.032;2024-02-21T00:23:46;12.75;;;4.28;;
43014;SDS011;28637;50.554;7.032;2024-02-21T00:28:47;11.90;;;4.38;;
43014;SDS011;28637;50.554;7.032;2024-02-21T00:33:47;10.60;;;4.30;;
43014;SDS011;28637;50.554;7.032;2024-02-21T00:38:48;11.40;;;4.63;;
43014;SDS011;28637;50.554;7.032;2024-02-21T00:43:49;10.82;;;4.88;;
43014;SDS011;28637;50.554;7.032;2024-02-21T00:48:50;12.10;;;4.50;;
43014;SDS011;28637;50.554;7.032;2024-02-21T00:53:50;13.15;;;4.43;;
43014;SDS011;28637;50.554;7.032;2024-02-21T00:58:51;9.60;;;4.05;;
43014;SDS011;28637;50.554;7.032;2024-02-21T01:03:52;15.45;;;5.07;;
43014;SDS011;28637;50.554;7.032;2024-02-21T01:08:56;12.00;;;4.05;;
43014;SDS011;28637;50.554;7.032;2024-02-21T01:13:56;10.80;;;4.13;;
43014;SDS011;28637;50.554;7.032;2024-02-21T01:18:57;9.70;;;4.07;;
43014;SDS011;28637;50.554;7.032;2024-02-21T01:23:58;8.43;;;3.95;;
43014;SDS011;28637;50.554;7.032;2024-02-21T01:28:59;13.57;;;4.47;;
43014;SDS011;28637;50.554;7.032;2024-02-21T01:33:59;11.03;;;3.93;;
43014;SDS011;28637;50.554;7.032;2024-02-21T01:39:00;9.97;;;4.13;;
43014;SDS011;28637;50.554;7.032;2024-02-21T01:44:01;9.70;;;3.85;;
43014;SDS011;28637;50.554;7.032;2024-02-21T01:49:02;10.17;;;3.93;;
43014;SDS011;28637;50.554;7.032;2024-02-21T01:54:03;8.83;;;3.37;;
43014;SDS011;28637;50.554;7.032;2024-02-21T01:59:03;9.05;;;3.90;;
43014;SDS011;28637;50.554;7.032;2024-02-21T02:04:04;10.83;;;3.93;;
43014;SDS011;28637;50.554;7.032;2024-02-21T02:09:06;13.65;;;3.75;;
43014;SDS011;28637;50.554;7.032;2024-02-21T02:14:07;8.97;;;3.80;;
43014;SDS011;28637;50.554;7.032;2024-02-21T02:19:07;11.17;;;4.00;;
43014;SDS011;28637;50.554;7.032;2024-02-21T02:24:13;8.88;;;3.47;;
43014;SDS011;28637;50.554;7.032;2024-02-21T02:34:15;12.32;;;3.75;;
43014;SDS011;28637;50.554;7.032;2024-02-21T02:39:15;10.20;;;3.43;;
43014;SDS011;28637;50.554;7.032;2024-02-21T02:44:16;10.00;;;3.50;;
43014;SDS011;28637;50.554;7.032;2024-02-21T02:49:17;12.27;;;3.63;;
43014;SDS011;28637;50.554;7.032;2024-02-21T02:54:17;16.83;;;4.23;;
43014;SDS011;28637;50.554;7.032;2024-02-21T02:59:18;7.83;;;3.33;;
43014;SDS011;28637;50.554;7.032;2024-02-21T03:04:19;9.83;;;3.83;;
43014;SDS011;28637;50.554;7.032;2024-02-21T03:09:19;10.48;;;3.72;;
43014;SDS011;28637;50.554;7.032;2024-02-21T03:14:20;8.20;;;3.45;;
43014;SDS011;28637;50.554;7.032;2024-02-21T03:19:21;11.87;;;3.57;;
43014;SDS011;28637;50.554;7.032;2024-02-21T03:24:22;12.32;;;3.60;;
43014;SDS011;28637;50.554;7.032;2024-02-21T03:29:23;12.68;;;3.42;;
43014;SDS011;28637;50.554;7.032;2024-02-21T03:34:24;8.03;;;3.20;;
43014;SDS011;28637;50.554;7.032;2024-02-21T03:39:24;7.97;;;3.22;;
43014;SDS011;28637;50.554;7.032;2024-02-21T03:44:25;7.03;;;3.22;;
43014;SDS011;28637;50.554;7.032;2024-02-21T03:49:26;8.60;;;3.20;;
43014;SDS011;28637;50.554;7.032;2024-02-21T03:54:27;7.23;;;2.97;;
43014;SDS011;28637;50.554;7.032;2024-02-21T03:59:27;7.33;;;3.17;;
43014;SDS011;28637;50.554;7.032;2024-02-21T04:04:28;9.68;;;3.50;;
43014;SDS011;28637;50.554;7.032;2024-02-21T04:09:29;7.43;;;3.05;;
43014;SDS011;28637;50.554;7.032;2024-02-21T04:14:29;11.57;;;2.90;;
43014;SDS011;28637;50.554;7.032;2024-02-21T04:19:30;9.73;;;3.10;;
43014;SDS011;28637;50.554;7.032;2024-02-21T04:24:31;10.10;;;3.13;;
43014;SDS011;28637;50.554;7.032;2024-02-21T04:29:31;8.45;;;3.17;;
43014;SDS011;28637;50.554;7.032;2024-02-21T04:34:33;8.50;;;3.10;;
43014;SDS011;28637;50.554;7.032;2024-02-21T04:39:34;10.60;;;3.33;;
43014;SDS011;28637;50.554;7.032;2024-02-21T04:44:34;6.20;;;2.93;;
43014;SDS011;28637;50.554;7.032;2024-02-21T04:49:35;8.53;;;3.23;;
43014;SDS011;28637;50.554;7.032;2024-02-21T04:54:36;15.03;;;3.73;;
43014;SDS011;28637;50.554;7.032;2024-02-21T04:59:37;11.03;;;3.07;;
43014;SDS011;28637;50.554;7.032;2024-02-21T05:04:37;12.55;;;3.53;;
43014;SDS011;28637;50.554;7.032;2024-02-21T05:09:38;8.60;;;3.13;;
43014;SDS011;28637;50.554;7.032;2024-02-21T05:14:39;6.57;;;2.80;;
43014;SDS011;28637;50.554;7.032;2024-02-21T05:19:39;9.50;;;3.10;;
43014;SDS011;28637;50.554;7.032;2024-02-21T05:24:40;11.50;;;3.13;;
43014;SDS011;28637;50.554;7.032;2024-02-21T05:29:41;11.23;;;3.23;;
43014;SDS011;28637;50.554;7.032;2024-02-21T05:34:42;7.60;;;2.90;;
43014;SDS011;28637;50.554;7.032;2024-02-21T05:39:42;8.40;;;2.92;;
43014;SDS011;28637;50.554;7.032;2024-02-21T05:44:44;7.40;;;2.90;;
43014;SDS011;28637;50.554;7.032;2024-02-21T05:49:44;5.15;;;2.70;;
43014;SDS011;28637;50.554;7.032;2024-02-21T05:54:45;9.53;;;2.87;;
43014;SDS011;28637;50.554;7.032;2024-02-21T05:59:46;7.10;;;3.07;;
43014;SDS011;28637;50.554;7.032;2024-02-21T06:04:46;10.35;;;3.30;;
43014;SDS011;28637;50.554;7.032;2024-02-21T06:09:47;10.10;;;3.50;;
43014;SDS011;28637;50.554;7.032;2024-02-21T06:14:48;7.37;;;3.30;;
43014;SDS011;28637;50.554;7.032;2024-02-21T06:19:48;8.68;;;3.33;;
43014;SDS011;28637;50.554;7.032;2024-02-21T06:24:49;9.07;;;3.30;;
43014;SDS011;28637;50.554;7.032;2024-02-21T06:29:50;12.10;;;3.60;;
43014;SDS011;28637;50.554;7.032;2024-02-21T06:34:51;6.33;;;3.00;;
43014;SDS011;28637;50.554;7.032;2024-02-21T06:39:51;10.52;;;3.80;;
43014;SDS011;28637;50.554;7.032;2024-02-21T06:44:52;7.70;;;3.23;;
43014;SDS011;28637;50.554;7.032;2024-02-21T06:49:53;11.85;;;4.20;;
43014;SDS011;28637;50.554;7.032;2024-02-21T06:54:53;13.67;;;3.67;;
43014;SDS011;28637;50.554;7.032;2024-02-21T06:59:54;11.77;;;3.80;;
43014;SDS011;28637;50.554;7.032;2024-02-21T07:04:55;12.93;;;3.85;;
43014;SDS011;28637;50.554;7.032;2024-02-21T07:09:56;11.37;;;4.03;;
43014;SDS011;28637;50.554;7.032;2024-02-21T07:14:56;7.00;;;3.80;;
43014;SDS011;28637;50.554;7.032;2024-02-21T07:19:57;9.18;;;3.50;;
43014;SDS011;28637;50.554;7.032;2024-02-21T07:24:59;6.38;;;3.45;;
43014;SDS011;28637;50.554;7.032;2024-02-21T07:29:59;13.57;;;3.60;;
43014;SDS011;28637;50.554;7.032;2024-02-21T07:35:00;11.20;;;3.80;;
43014;SDS011;28637;50.554;7.032;2024-02-21T07:40:01;8.95;;;3.30;;
43014;SDS011;28637;50.554;7.032;2024-02-21T07:45:01;8.97;;;3.13;;
43014;SDS011;28637;50.554;7.032;2024-02-21T07:50:03;8.70;;;3.42;;
43014;SDS011;28637;50.554;7.032;2024-02-21T07:55:05;10.70;;;3.58;;
43014;SDS011;28637;50.554;7.032;2024-02-21T08:00:06;11.75;;;3.88;;
43014;SDS011;28637;50.554;7.032;2024-02-21T08:05:09;9.27;;;3.63;;
43014;SDS011;28637;50.554;7.032;2024-02-21T08:10:12;10.57;;;3.35;;
43014;SDS011;28637;50.554;7.032;2024-02-21T08:15:13;9.73;;;3.40;;
43014;SDS011;28637;50.554;7.032;2024-02-21T08:20:13;11.77;;;3.73;;
43014;SDS011;28637;50.554;7.032;2024-02-21T08:25:14;11.13;;;4.10;;
43014;SDS011;28637;50.554;7.032;2024-02-21T08:30:15;14.70;;;4.00;;
43014;SDS011;28637;50.554;7.032;2024-02-21T08:35:16;10.48;;;3.53;;
43014;SDS011;28637;50.554;7.032;2024-02-21T08:40:19;10.82;;;3.60;;
43014;SDS011;28637;50.554;7.032;2024-02-21T08:45:21;11.65;;;3.47;;
43014;SDS011;28637;50.554;7.032;2024-02-21T08:50:22;7.67;;;3.00;;
43014;SDS011;28637;50.554;7.032;2024-02-21T08:55:22;11.00;;;3.33;;
43014;SDS011;28637;50.554;7.032;2024-02-21T09:00:24;10.57;;;4.37;;
43014;SDS011;28637;50.554;7.032;2024-02-21T09:05:27;11.25;;;2.97;;
43014;SDS011;28637;50.554;7.032;2024-02-21T09:10:27;8.67;;;3.23;;
43014;SDS011;28637;50.554;7.032;2024-02-21T09:15:28;11.60;;;3.27;;
43014;SDS011;28637;50.554;7.032;2024-02-21T09:20:29;9.30;;;2.90;;
43014;SDS011;28637;50.554;7.032;2024-02-21T09:25:29;7.13;;;3.20;;
43014;SDS011;28637;50.554;7.032;2024-02-21T09:30:31;9.02;;;3.17;;
43014;SDS011;28637;50.554;7.032;2024-02-21T09:35:33;11.00;;;2.70;;
43014;SDS011;28637;50.554;7.032;2024-02-21T09:40:34;7.63;;;2.83;;
43014;SDS011;28637;50.554;7.032;2024-02-21T09:45:38;8.00;;;2.95;;
43014;SDS011;28637;50.554;7.032;2024-02-21T09:50:40;9.38;;;2.50;;
43014;SDS011;28637;50.554;7.032;2024-02-21T09:55:44;9.70;;;2.92;;
43014;SDS011;28637;50.554;7.032;2024-02-21T10:00:46;10.82;;;3.00;;
43014;SDS011;28637;50.554;7.032;2024-02-21T10:05:49;9.17;;;2.80;;
43014;SDS011;28637;50.554;7.032;2024-02-21T10:10:50;8.02;;;2.83;;
43014;SDS011;28637;50.554;7.032;2024-02-21T10:16:06;6.13;;;2.35;;
43014;SDS011;28637;50.554;7.032;2024-02-21T10:21:08;8.13;;;2.72;;
43014;SDS011;28637;50.554;7.032;2024-02-21T10:26:08;6.83;;;2.87;;
43014;SDS011;28637;50.554;7.032;2024-02-21T10:31:10;7.27;;;2.77;;
43014;SDS011;28637;50.554;7.032;2024-02-21T10:36:21;4.13;;;2.25;;
43014;SDS011;28637;50.554;7.032;2024-02-21T10:41:22;6.13;;;2.70;;
43014;SDS011;28637;50.554;7.032;2024-02-21T10:46:24;5.47;;;2.03;;
43014;SDS011;28637;50.554;7.032;2024-02-21T10:51:29;10.43;;;2.88;;
43014;SDS011;28637;50.554;7.032;2024-02-21T10:56:35;5.03;;;2.42;;
43014;SDS011;28637;50.554;7.032;2024-02-21T11:01:38;5.45;;;2.50;;
43014;SDS011;28637;50.554;7.032;2024-02-21T11:06:39;6.47;;;2.50;;
43014;SDS011;28637;50.554;7.032;2024-02-21T11:11:42;5.22;;;2.42;;
43014;SDS011;28637;50.554;7.032;2024-02-21T11:16:44;8.02;;;3.10;;
43014;SDS011;28637;50.554;7.032;2024-02-21T11:21:45;9.87;;;2.80;;
43014;SDS011;28637;50.554;7.032;2024-02-21T11:26:46;7.77;;;3.00;;
43014;SDS011;28637;50.554;7.032;2024-02-21T11:31:49;4.88;;;2.40;;
43014;SDS011;28637;50.554;7.032;2024-02-21T11:36:50;8.13;;;2.70;;
43014;SDS011;28637;50.554;7.032;2024-02-21T11:42:00;6.32;;;2.90;;
43014;SDS011;28637;50.554;7.032;2024-02-21T11:47:08;7.10;;;2.90;;
43014;SDS011;28637;50.554;7.032;2024-02-21T11:52:09;9.88;;;2.90;;
43014;SDS011;28637;50.554;7.032;2024-02-21T11:57:10;6.93;;;2.80;;
43014;SDS011;28637;50.554;7.032;2024-02-21T12:02:11;9.18;;;2.92;;
43014;SDS011;28637;50.554;7.032;2024-02-21T12:07:13;5.82;;;3.08;;
43014;SDS011;28637;50.554;7.032;2024-02-21T12:12:14;7.25;;;2.95;;
43014;SDS011;28637;50.554;7.032;2024-02-21T12:17:20;8.38;;;2.67;;
43014;SDS011;28637;50.554;7.032;2024-02-21T12:22:20;5.50;;;2.70;;
43014;SDS011;28637;50.554;7.032;2024-02-21T12:27:21;7.53;;;3.13;;
43014;SDS011;28637;50.554;7.032;2024-02-21T12:32:23;9.43;;;3.00;;
43014;SDS011;28637;50.554;7.032;2024-02-21T12:37:25;8.40;;;3.00;;
43014;SDS011;28637;50.554;7.032;2024-02-21T12:42:25;8.07;;;2.83;;
43014;SDS011;28637;50.554;7.032;2024-02-21T12:47:26;8.57;;;3.30;;
43014;SDS011;28637;50.554;7.032;2024-02-21T12:52:27;6.63;;;2.92;;
43014;SDS011;28637;50.554;7.032;2024-02-21T12:57:28;9.98;;;3.45;;
43014;SDS011;28637;50.554;7.032;2024-02-21T13:02:29;8.43;;;3.10;;
43014;SDS011;28637;50.554;7.032;2024-02-21T13:07:29;8.53;;;2.30;;
43014;SDS011;28637;50.554;7.032;2024-02-21T13:12:32;7.72;;;2.58;;
43014;SDS011;28637;50.554;7.032;2024-02-21T13:17:33;6.07;;;2.07;;
43014;SDS011;28637;50.554;7.032;2024-02-21T13:22:34;7.07;;;2.30;;
43014;SDS011;28637;50.554;7.032;2024-02-21T13:27:35;5.23;;;2.60;;
43014;SDS011;28637;50.554;7.032;2024-02-21T13:32:35;6.90;;;2.60;;
43014;SDS011;28637;50.554;7.032;2024-02-21T13:37:37;6.47;;;2.30;;
43014;SDS011;28637;50.554;7.032;2024-02-21T13:42:38;7.40;;;2.20;;
43014;SDS011;28637;50.554;7.032;2024-02-21T13:47:39;5.68;;;2.20;;
43014;SDS011;28637;50.554;7.032;2024-02-21T13:52:40;4.90;;;2.30;;
43014;SDS011;28637;50.554;7.032;2024-02-21T13:57:41;4.47;;;2.17;;
43014;SDS011;28637;50.554;7.032;2024-02-21T14:02:42;3.87;;;1.80;;
43014;SDS011;28637;50.554;7.032;2024-02-21T14:07:42;4.33;;;2.37;;
43014;SDS011;28637;50.554;7.032;2024-02-21T14:12:43;4.63;;;2.40;;
43014;SDS011;28637;50.554;7.032;2024-02-21T14:17:45;7.60;;;2.30;;
43014;SDS011;28637;50.554;7.032;2024-02-21T14:22:57;6.15;;;2.30;;
43014;SDS011;28637;50.554;7.032;2024-02-21T14:28:02;4.88;;;2.08;;
43014;SDS011;28637;50.554;7.032;2024-02-21T14:33:27;5.07;;;2.00;;
43014;SDS011;28637;50.554;7.032;2024-02-21T14:38:42;6.43;;;2.28;;
43014;SDS011;28637;50.554;7.032;2024-02-21T14:44:53;4.80;;;2.05;;
43014;SDS011;28637;50.554;7.032;2024-02-21T14:50:06;7.38;;;2.55;;
43014;SDS011;28637;50.554;7.032;2024-02-21T14:55:08;5.47;;;2.40;;
43014;SDS011;28637;50.554;7.032;2024-02-21T15:00:11;6.03;;;2.40;;
43014;SDS011;28637;50.554;7.032;2024-02-21T15:05:15;7.10;;;2.33;;
43014;SDS011;28637;50.554;7.032;2024-02-21T15:10:16;7.17;;;2.60;;
43014;SDS011;28637;50.554;7.032;2024-02-21T15:15:20;6.45;;;2.00;;
43014;SDS011;28637;50.554;7.032;2024-02-21T15:20:21;5.83;;;2.00;;
43014;SDS011;28637;50.554;7.032;2024-02-21T15:25:21;6.80;;;2.28;;
43014;SDS011;28637;50.554;7.032;2024-02-21T15:30:22;6.20;;;2.10;;
43014;SDS011;28637;50.554;7.032;2024-02-21T15:35:23;5.53;;;2.30;;
43014;SDS011;28637;50.554;7.032;2024-02-21T15:40:24;5.07;;;2.20;;
43014;SDS011;28637;50.554;7.032;2024-02-21T15:45:25;4.23;;;2.03;;
43014;SDS011;28637;50.554;7.032;2024-02-21T15:50:26;6.40;;;2.33;;
43014;SDS011;28637;50.554;7.032;2024-02-21T15:55:28;8.02;;;2.17;;
43014;SDS011;28637;50.554;7.032;2024-02-21T16:00:29;7.43;;;2.13;;
43014;SDS011;28637;50.554;7.032;2024-02-21T16:05:29;5.27;;;2.37;;
43014;SDS011;28637;50.554;7.032;2024-02-21T16:10:30;3.80;;;2.00;;
43014;SDS011;28637;50.554;7.032;2024-02-21T16:15:31;5.27;;;2.17;;
43014;SDS011;28637;50.554;7.032;2024-02-21T16:20:32;7.13;;;2.50;;
43014;SDS011;28637;50.554;7.032;2024-02-21T16:25:33;6.88;;;2.28;;
43014;SDS011;28637;50.554;7.032;2024-02-21T16:30:34;4.43;;;2.10;;
43014;SDS011;28637;50.554;7.032;2024-02-21T16:35:36;5.70;;;1.98;;
43014;SDS011;28637;50.554;7.032;2024-02-21T16:40:39;5.57;;;2.00;;
43014;SDS011;28637;50.554;7.032;2024-02-21T16:45:41;7.82;;;2.30;;
43014;SDS011;28637;50.554;7.032;2024-02-21T16:50:42;5.13;;;2.03;;
43014;SDS011;28637;50.554;7.032;2024-02-21T16:55:43;3.47;;;1.50;;
43014;SDS011;28637;50.554;7.032;2024-02-21T17:00:44;5.40;;;2.07;;
43014;SDS011;28637;50.554;7.032;2024-02-21T17:05:47;5.65;;;1.77;;
43014;SDS011;28637;50.554;7.032;2024-02-21T17:10:48;6.30;;;2.00;;
43014;SDS011;28637;50.554;7.032;2024-02-21T17:15:50;6.93;;;2.00;;
43014;SDS011;28637;50.554;7.032;2024-02-21T17:20:51;5.35;;;1.85;;
43014;SDS011;28637;50.554;7.032;2024-02-21T17:25:52;3.67;;;1.70;;
43014;SDS011;28637;50.554;7.032;2024-02-21T17:30:52;7.17;;;1.80;;
43014;SDS011;28637;50.554;7.032;2024-02-21T17:35:53;8.67;;;2.10;;
43014;SDS011;28637;50.554;7.032;2024-02-21T17:40:54;3.33;;;1.83;;
43014;SDS011;28637;50.554;7.032;2024-02-21T17:45:59;7.23;;;2.30;;
43014;SDS011;28637;50.554;7.032;2024-02-21T17:51:00;4.65;;;1.90;;
43014;SDS011;28637;50.554;7.032;2024-02-21T17:56:00;6.43;;;2.00;;
43014;SDS011;28637;50.554;7.032;2024-02-21T18:01:01;6.43;;;2.30;;
43014;SDS011;28637;50.554;7.032;2024-02-21T18:06:02;6.97;;;2.20;;
43014;SDS011;28637;50.554;7.032;2024-02-21T18:11:03;6.27;;;2.43;;
43014;SDS011;28637;50.554;7.032;2024-02-21T18:16:04;7.90;;;2.90;;
43014;SDS011;28637;50.554;7.032;2024-02-21T18:21:06;7.78;;;2.60;;
43014;SDS011;28637;50.554;7.032;2024-02-21T18:26:07;8.00;;;2.53;;
43014;SDS011;28637;50.554;7.032;2024-02-21T18:31:07;6.80;;;2.77;;
43014;SDS011;28637;50.554;7.032;2024-02-21T18:36:08;6.95;;;2.45;;
43014;SDS011;28637;50.554;7.032;2024-02-21T18:41:09;6.47;;;2.73;;
43014;SDS011;28637;50.554;7.032;2024-02-21T18:46:10;3.92;;;1.95;;
43014;SDS011;28637;50.554;7.032;2024-02-21T18:51:10;6.80;;;2.33;;
43014;SDS011;28637;50.554;7.032;2024-02-21T18:56:15;6.10;;;2.63;;
43014;SDS011;28637;50.554;7.032;2024-02-21T19:01:15;6.07;;;2.70;;
43014;SDS011;28637;50.554;7.032;2024-02-21T19:06:36;5.63;;;2.67;;
43014;SDS011;28637;50.554;7.032;2024-02-21T19:12:01;6.65;;;2.80;;
43014;SDS011;28637;50.554;7.032;2024-02-21T19:17:05;4.63;;;2.67;;
43014;SDS011;28637;50.554;7.032;2024-02-21T19:22:05;6.00;;;2.80;;
43014;SDS011;28637;50.554;7.032;2024-02-21T19:27:06;4.93;;;2.58;;
43014;SDS011;28637;50.554;7.032;2024-02-21T19:32:25;4.93;;;2.67;;
43014;SDS011;28637;50.554;7.032;2024-02-21T19:37:54;5.55;;;2.45;;
43014;SDS011;28637;50.554;7.032;2024-02-21T19:43:03;7.40;;;2.75;;
43014;SDS011;28637;50.554;7.032;2024-02-21T19:48:06;8.40;;;2.60;;
43014;SDS011;28637;50.554;7.032;2024-02-21T19:59:02;5.45;;;2.55;;
43014;SDS011;28637;50.554;7.032;2024-02-21T20:04:05;6.65;;;2.70;;
43014;SDS011;28637;50.554;7.032;2024-02-21T20:09:07;5.28;;;2.70;;
43014;SDS011;28637;50.554;7.032;2024-02-21T20:14:09;5.47;;;2.63;;
43014;SDS011;28637;50.554;7.032;2024-02-21T20:19:16;4.90;;;2.92;;
43014;SDS011;28637;50.554;7.032;2024-02-21T20:24:32;5.22;;;2.70;;
43014;SDS011;28637;50.554;7.032;2024-02-21T20:29:33;4.22;;;2.65;;
43014;SDS011;28637;50.554;7.032;2024-02-21T20:34:35;5.03;;;2.80;;
43014;SDS011;28637;50.554;7.032;2024-02-21T20:39:35;4.57;;;2.30;;
43014;SDS011;28637;50.554;7.032;2024-02-21T20:44:37;4.90;;;2.50;;
43014;SDS011;28637;50.554;7.032;2024-02-21T20:49:38;4.70;;;2.22;;
43014;SDS011;28637;50.554;7.032;2024-02-21T20:54:39;5.33;;;2.70;;
43014;SDS011;28637;50.554;7.032;2024-02-21T20:59:40;4.45;;;2.08;;
43014;SDS011;28637;50.554;7.032;2024-02-21T21:04:42;4.72;;;2.35;;
43014;SDS011;28637;50.554;7.032;2024-02-21T21:09:43;3.20;;;2.20;;
43014;SDS011;28637;50.554;7.032;2024-02-21T21:14:44;1.73;;;1.50;;
43014;SDS011;28637;50.554;7.032;2024-02-21T21:19:45;4.17;;;1.77;;
43014;SDS011;28637;50.554;7.032;2024-02-21T21:24:46;2.23;;;1.50;;
43014;SDS011;28637;50.554;7.032;2024-02-21T21:29:46;1.70;;;1.55;;
43014;SDS011;28637;50.554;7.032;2024-02-21T21:34:52;2.45;;;1.52;;
43014;SDS011;28637;50.554;7.032;2024-02-21T21:39:53;2.57;;;1.70;;
43014;SDS011;28637;50.554;7.032;2024-02-21T21:44:55;1.80;;;1.20;;
43014;SDS011;28637;50.554;7.032;2024-02-21T21:49:56;1.93;;;1.20;;
43014;SDS011;28637;50.554;7.032;2024-02-21T21:54:56;1.65;;;1.25;;
43014;SDS011;28637;50.554;7.032;2024-02-21T21:59:57;1.70;;;1.40;;
43014;SDS011;28637;50.554;7.032;2024-02-21T22:05:00;1.67;;;1.23;;
43014;SDS011;28637;50.554;7.032;2024-02-21T22:10:00;1.20;;;1.02;;
43014;SDS011;28637;50.554;7.032;2024-02-21T22:15:02;1.05;;;0.90;;
43014;SDS011;28637;50.554;7.032;2024-02-21T22:20:05;1.40;;;1.00;;
43014;SDS011;28637;50.554;7.032;2024-02-21T22:25:12;1.10;;;0.90;;
43014;SDS011;28637;50.554;7.032;2024-02-21T22:30:13;0.85;;;0.75;;
43014;SDS011;28637;50.554;7.032;2024-02-21T22:35:13;1.30;;;1.00;;
43014;SDS011;28637;50.554;7.032;2024-02-21T22:40:14;1.20;;;0.90;;
43014;SDS011;28637;50.554;7.032;2024-02-21T22:45:16;0.75;;;0.70;;
43014;SDS011;28637;50.554;7.032;2024-02-21T22:55:17;0.80;;;0.80;;
43014;SDS011;28637;50.554;7.032;2024-02-21T23:00:18;0.55;;;0.50;;
43014;SDS011;28637;50.554;7.032;2024-02-21T23:05:19;1.88;;;0.73;;
43014;SDS011;28637;50.554;7.032;2024-02-21T23:10:20;1.00;;;0.50;;
43014;SDS011;28637;50.554;7.032;2024-02-21T23:15:25;0.65;;;0.63;;
43014;SDS011;28637;50.554;7.032;2024-02-21T23:20:26;0.53;;;0.40;;
43014;SDS011;28637;50.554;7.032;2024-02-21T23:25:27;0.63;;;0.50;;
43014;SDS011;28637;50.554;7.032;2024-02-21T23:30:28;1.50;;;1.10;;
43014;SDS011;28637;50.554;7.032;2024-02-21T23:35:29;0.40;;;0.40;;
43014;SDS011;28637;50.554;7.032;2024-02-21T23:40:29;0.50;;;0.37;;
43014;SDS011;28637;50.554;7.032;2024-02-21T23:45:30;0.47;;;0.47;;
43014;SDS011;28637;50.554;7.032;2024-02-21T23:50:31;0.30;;;0.30;;
43014;SDS011;28637;50.554;7.032;2024-02-21T23:55:31;0.63;;;0.60;;
